Chicken, Alaska
Current Conditions -  °F | °C
As of 4:53 AM on Friday 28 Nov 2014 (Local Time) from PAEG Reporting Station
Clear Clear  
Wind Chill: -24°   Ceiling: Unl
Heat Index: -6°   Visibility: 10mi
Dew Point: -14°   Wind: 10mph
Humidity: 68%   Direction: 140°SE
Pressure: 30.25"   Gusts: 24mph
Location:  64.07°N, 141.94°W
Report Text: PAEG 281353Z AUTO 14009G21KT 090V170 10SM CLR M21/M26 A3025 RMK AO2 SLP273 T12111256 TSNO
Loading
Personal Weather Stations






























Interactive Weather Map New forecast layout! Learn more

10-Day Weather Forecast

Advertisements
Track Severe Weather on mobile